Angelica, New York
Current Conditions -  °F | °C
As of 9:56 AM on Friday 19 Dec 2014 (Local Time) from KELZ Reporting Station
Overcast Overcast  
Wind Chill: 11°   Ceiling: 800
Heat Index: 23°   Visibility: 10mi
Dew Point: 19°   Wind: 13mph
Humidity: 85%   Direction: 330°NNW
Pressure: 30.09"   Gusts: 18mph
Location:  42.31°N, 78.02°W
Report Text: KELZ 191456Z AUTO 33011G16KT 10SM OVC008 M05/M07 A3009 RMK AO2 UPB1357E07 SLP218 P0000 60000 T10501072 53019
Loading
Personal Weather Stations






























Interactive Weather Map New forecast layout! Learn more

10-Day Weather Forecast

Advertisements
Track Severe Weather on mobile